Time;durP1;ratioP1;P1;durP2;ratioP2;P2;SDS_P1;SDS_P2;PMS_P1;PMS_P2;Temp;Humidity;BMP_temperature;BMP_pressure;BME280_temperature;BME280_humidity;BME280_pressure;Samples;Min_cycle;Max_cycle;Signal;HPM_P1;HPM_P2
2022/10/21 00:01:21;;;;;;;2.70;1.30;;;32.80;39.30;;;;;;5088054;28;20103;-66
2022/10/21 00:03:47;;;;;;;5.55;1.33;;;32.70;38.90;;;;;;5088866;28;20074;-68
2022/10/21 00:06:13;;;;;;;14.60;1.83;;;32.60;38.90;;;;;;5087947;28;20094;-68
2022/10/21 00:08:40;;;;;;;7.95;1.48;;;32.60;38.90;;;;;;5090590;28;20067;-68
2022/10/21 00:11:07;;;;;;;11.25;1.65;;;32.60;39.50;;;;;;5090278;28;20068;-65
2022/10/21 00:13:37;;;;;;;11.27;1.35;;;32.50;39.20;;;;;;5091813;28;20070;-65
2022/10/21 00:16:05;;;;;;;9.43;1.30;;;32.50;39.20;;;;;;5092503;28;20099;-66
2022/10/21 00:18:33;;;;;;;11.68;1.50;;;32.40;39.10;;;;;;5092628;28;20078;-68
2022/10/21 00:21:00;;;;;;;9.32;1.38;;;32.50;39.30;;;;;;5093346;28;20068;-67
2022/10/21 00:23:26;;;;;;;7.75;1.45;;;32.40;39.70;;;;;;5093127;28;20428;-69
2022/10/21 00:25:57;;;;;;;7.35;1.60;;;32.30;40.00;;;;;;5098043;28;20059;-68
2022/10/21 00:28:24;;;;;;;10.63;1.60;;;32.20;40.10;;;;;;5099736;28;20551;-65
2022/10/21 00:30:50;;;;;;;4.65;1.35;;;32.10;40.60;;;;;;5092229;28;20079;-66
2022/10/21 00:33:16;;;;;;;10.93;2.25;;;32.10;40.00;;;;;;5092280;28;20540;-67
2022/10/21 00:35:48;;;;;;;8.63;1.88;;;32.00;40.60;;;;;;5091504;28;20125;-66
2022/10/21 00:38:15;;;;;;;14.82;2.47;;;32.00;40.50;;;;;;5092304;28;20083;-66
2022/10/21 00:40:41;;;;;;;7.53;1.70;;;31.90;41.00;;;;;;5090978;28;20068;-64
2022/10/21 00:43:10;;;;;;;11.05;2.00;;;31.80;40.60;;;;;;5094192;28;20169;-67
2022/10/21 00:45:37;;;;;;;12.20;2.25;;;31.70;40.90;;;;;;5093661;28;20436;-67
2022/10/21 00:48:23;;;;;;;14.35;2.17;;;31.60;41.10;;;;;;5094413;28;20067;-65
2022/10/21 00:50:58;;;;;;;13.73;2.40;;;31.50;41.00;;;;;;5094984;28;20067;-70
2022/10/21 00:53:26;;;;;;;10.85;2.40;;;31.30;41.60;;;;;;5098933;28;20188;-67
2022/10/21 00:55:59;;;;;;;9.60;2.00;;;31.30;41.90;;;;;;5092042;28;20520;-66
2022/10/21 00:58:29;;;;;;;7.68;2.67;;;31.20;41.60;;;;;;5091188;28;20071;-67
2022/10/21 01:00:57;;;;;;;12.85;2.83;;;31.10;42.00;;;;;;5091014;28;20450;-64
2022/10/21 01:03:26;;;;;;;14.90;2.58;;;30.90;42.20;;;;;;5091732;28;20080;-66
2022/10/21 01:05:55;;;;;;;4.65;1.77;;;30.90;42.80;;;;;;5098937;28;20419;-67
2022/10/21 01:08:22;;;;;;;10.82;2.03;;;30.80;43.00;;;;;;5090737;28;20068;-66
2022/10/21 01:10:49;;;;;;;12.57;1.88;;;30.80;43.20;;;;;;5092965;28;20087;-67
2022/10/21 01:13:45;;;;;;;10.60;1.60;;;30.60;43.70;;;;;;5087995;28;20072;-65
2022/10/21 01:16:29;;;;;;;8.13;1.58;;;30.60;43.90;;;;;;5088486;28;20101;-66
2022/10/21 01:19:12;;;;;;;5.10;1.70;;;30.50;44.20;;;;;;5091064;28;20079;-65
2022/10/21 01:21:48;;;;;;;31.67;16.83;;;30.40;44.00;;;;;;5091929;28;20122;-65
2022/10/21 01:24:14;;;;;;;;;;;30.40;44.30;;;;;;5089187;28;20062;-64
2022/10/21 01:27:17;;;;;;;11.10;3.30;;;30.30;44.40;;;;;;5091084;28;19959;-66
2022/10/21 01:30:15;;;;;;;27.65;5.47;;;30.30;44.60;;;;;;5089815;28;20079;-65
2022/10/21 01:33:18;;;;;;;18.58;4.30;;;30.20;44.90;;;;;;5090743;28;20077;-67
2022/10/21 01:35:54;;;;;;;15.05;3.17;;;30.00;44.80;;;;;;5092912;28;20124;-66
2022/10/21 01:38:55;;;;;;;23.40;2.65;;;29.90;45.00;;;;;;5089922;28;20623;-67
2022/10/21 01:41:45;;;;;;;17.85;2.88;;;29.80;45.50;;;;;;5089936;28;20091;-68
2022/10/21 01:44:29;;;;;;;14.43;2.38;;;29.70;45.80;;;;;;5090787;28;20076;-66
2022/10/21 01:47:15;;;;;;;15.98;2.25;;;29.60;45.90;;;;;;5089926;28;20543;-66
2022/10/21 01:49:52;;;;;;;12.13;2.53;;;29.50;46.30;;;;;;5090825;28;20063;-65
2022/10/21 01:52:19;;;;;;;15.35;2.42;;;29.40;46.30;;;;;;5093054;28;20079;-69
2022/10/21 01:54:53;;;;;;;19.48;2.22;;;29.30;45.90;;;;;;5090192;28;20171;-66
2022/10/21 01:57:23;;;;;;;10.70;2.30;;;29.30;46.80;;;;;;5090545;28;20475;-66
2022/10/21 01:59:51;;;;;;;15.05;2.10;;;29.20;46.50;;;;;;5089955;28;20073;-66
2022/10/21 02:02:19;;;;;;;17.92;2.90;;;29.20;46.70;;;;;;5090291;28;20088;-67
2022/10/21 02:04:48;;;;;;;11.05;2.92;;;29.20;46.70;;;;;;5090503;28;20077;-65
2022/10/21 02:07:15;;;;;;;21.85;3.30;;;29.10;46.90;;;;;;5087676;28;20093;-65
2022/10/21 02:09:41;;;;;;;14.02;3.15;;;29.00;47.30;;;;;;5093010;28;20072;-67
2022/10/21 02:12:09;;;;;;;16.75;3.58;;;28.90;47.60;;;;;;5090450;28;20506;-66
2022/10/21 02:14:41;;;;;;;23.65;3.50;;;28.90;47.50;;;;;;5085866;28;20107;-66
2022/10/21 02:17:12;;;;;;;13.65;4.00;;;28.70;47.50;;;;;;5089378;28;20108;-65
2022/10/21 02:19:38;;;;;;;21.38;4.40;;;28.70;47.10;;;;;;5088646;28;20154;-68
2022/10/21 02:22:06;;;;;;;15.70;3.92;;;28.60;49.10;;;;;;5088028;28;20139;-68
2022/10/21 02:24:38;;;;;;;28.38;4.68;;;28.60;47.70;;;;;;5089498;28;20140;-67
2022/10/21 02:27:04;;;;;;;22.30;4.10;;;28.50;48.70;;;;;;5088995;28;20078;-66
2022/10/21 02:29:38;;;;;;;20.23;4.50;;;28.50;48.10;;;;;;5088836;28;20084;-68
2022/10/21 02:32:21;;;;;;;24.25;4.60;;;28.40;48.10;;;;;;5089877;28;20075;-69
2022/10/21 02:35:00;;;;;;;22.77;4.55;;;28.30;48.10;;;;;;5089606;28;20544;-68
2022/10/21 02:37:53;;;;;;;36.47;4.55;;;28.30;48.50;;;;;;5090725;28;20914;-68
2022/10/21 02:40:52;;;;;;;18.27;4.05;;;28.20;48.60;;;;;;5096319;28;20135;-68
2022/10/21 02:43:26;;;;;;;13.57;3.95;;;28.20;49.10;;;;;;5012883;28;20269;-67
2022/10/21 02:45:58;;;;;;;22.23;3.90;;;28.20;50.00;;;;;;5011101;28;20076;-68
2022/10/21 02:48:24;;;;;;;17.20;3.90;;;28.10;49.50;;;;;;5014352;28;20080;-67
2022/10/21 02:50:51;;;;;;;31.60;4.03;;;28.10;50.10;;;;;;5014846;28;20106;-67
2022/10/21 02:53:17;;;;;;;27.85;4.22;;;28.00;49.80;;;;;;5012474;28;20137;-68
2022/10/21 02:55:44;;;;;;;25.05;4.55;;;28.00;49.80;;;;;;5008963;28;20455;-67
2022/10/21 02:58:10;;;;;;;20.60;4.30;;;27.90;49.80;;;;;;5014098;28;20074;-67
2022/10/21 03:00:37;;;;;;;28.10;4.75;;;27.80;50.10;;;;;;5017796;28;20132;-66
2022/10/21 03:03:03;;;;;;;19.08;4.63;;;27.80;51.30;;;;;;5012535;28;20086;-65
2022/10/21 03:05:29;;;;;;;29.52;5.25;;;27.80;50.60;;;;;;5012868;28;20112;-65
2022/10/21 03:07:56;;;;;;;44.72;5.80;;;27.80;52.20;;;;;;5010364;28;20091;-65
2022/10/21 03:10:22;;;;;;;29.67;5.40;;;27.70;51.80;;;;;;5013605;28;20168;-66
2022/10/21 03:12:49;;;;;;;28.15;4.78;;;27.70;51.60;;;;;;5011803;28;20097;-68
2022/10/21 03:15:16;;;;;;;32.47;4.90;;;27.60;51.30;;;;;;5004890;28;20193;-68
2022/10/21 03:17:43;;;;;;;26.98;4.80;;;27.60;51.70;;;;;;5011028;28;20509;-69
2022/10/21 03:20:09;;;;;;;25.23;5.40;;;27.50;51.60;;;;;;5055766;28;20103;-67
2022/10/21 03:22:36;;;;;;;32.50;5.97;;;27.50;51.90;;;;;;5089505;28;20167;-66
2022/10/21 03:25:03;;;;;;;31.95;6.00;;;27.50;52.90;;;;;;5089928;28;20083;-70
2022/10/21 03:27:29;;;;;;;33.00;5.72;;;27.40;52.80;;;;;;5089689;28;20073;-67
2022/10/21 03:29:55;;;;;;;37.50;7.13;;;27.30;53.70;;;;;;5088881;28;20072;-68
2022/10/21 03:32:22;;;;;;;34.40;6.25;;;27.30;53.10;;;;;;5088777;28;20146;-66
2022/10/21 03:34:48;;;;;;;39.95;6.97;;;27.20;52.70;;;;;;5089952;28;20073;-69
2022/10/21 03:37:15;;;;;;;29.48;6.32;;;27.10;55.30;;;;;;5088345;28;21465;-66
2022/10/21 03:39:41;;;;;;;36.42;6.75;;;27.10;54.00;;;;;;5089571;28;20080;-66
2022/10/21 03:42:07;;;;;;;34.60;6.05;;;27.10;54.00;;;;;;5088133;28;20445;-70
2022/10/21 03:44:34;;;;;;;55.67;6.85;;;27.20;55.10;;;;;;5089731;28;20166;-66
2022/10/21 03:47:00;;;;;;;26.90;5.82;;;27.10;54.40;;;;;;5089370;28;20067;-70
2022/10/21 03:49:26;;;;;;;32.50;5.80;;;27.10;54.40;;;;;;5093063;28;20076;-68
2022/10/21 03:51:53;;;;;;;63.60;6.35;;;27.00;54.50;;;;;;5093711;28;20063;-69
2022/10/21 03:54:20;;;;;;;36.28;6.15;;;26.90;54.90;;;;;;5087995;28;20077;-67
2022/10/21 03:56:46;;;;;;;35.25;5.53;;;26.90;55.30;;;;;;5088833;28;20133;-68
2022/10/21 03:59:13;;;;;;;36.08;6.28;;;26.90;55.60;;;;;;5090931;28;20503;-68
2022/10/21 04:01:39;;;;;;;35.55;6.80;;;26.80;55.70;;;;;;5088994;28;20089;-66
2022/10/21 04:04:06;;;;;;;50.85;6.18;;;26.70;55.90;;;;;;5088848;28;20097;-66
2022/10/21 04:06:32;;;;;;;34.20;6.13;;;26.70;56.70;;;;;;5097211;28;20122;-66
2022/10/21 04:08:59;;;;;;;48.78;8.38;;;26.60;57.30;;;;;;5089911;28;20089;-68
2022/10/21 04:11:25;;;;;;;38.35;7.82;;;26.60;57.60;;;;;;5088046;28;20140;-68
2022/10/21 04:13:56;;;;;;;49.30;7.70;;;26.50;57.50;;;;;;5088360;28;20173;-69
2022/10/21 04:16:23;;;;;;;41.88;7.80;;;26.50;58.00;;;;;;5084140;28;20519;-66
2022/10/21 04:18:49;;;;;;;45.17;8.25;;;26.40;57.50;;;;;;5089074;28;20059;-67
2022/10/21 04:21:16;;;;;;;44.28;7.95;;;26.40;57.70;;;;;;5091002;28;20126;-67
2022/10/21 04:23:42;;;;;;;46.97;7.18;;;26.40;57.40;;;;;;5088822;28;20190;-67
2022/10/21 04:26:09;;;;;;;38.17;6.47;;;26.30;57.20;;;;;;5090799;28;20100;-67
2022/10/21 04:28:36;;;;;;;40.25;6.82;;;26.20;57.50;;;;;;5088945;28;20460;-67
2022/10/21 04:31:02;;;;;;;57.15;7.63;;;26.30;59.20;;;;;;5089908;28;20132;-68
2022/10/21 04:33:28;;;;;;;35.20;6.53;;;26.20;58.60;;;;;;5087829;28;20095;-65
2022/10/21 04:35:57;;;;;;;45.35;8.30;;;26.20;58.70;;;;;;5090433;28;20075;-68
2022/10/21 04:38:24;;;;;;;48.97;9.88;;;26.20;58.50;;;;;;5092631;28;20476;-68
2022/10/21 04:40:58;;;;;;;46.35;8.25;;;26.10;58.70;;;;;;5088187;28;20098;-67
2022/10/21 04:43:25;;;;;;;46.88;7.93;;;26.10;57.20;;;;;;5088825;28;20179;-67
2022/10/21 04:45:52;;;;;;;48.10;8.93;;;26.00;57.50;;;;;;5088890;28;20083;-67
2022/10/21 04:48:19;;;;;;;51.20;8.85;;;26.00;58.10;;;;;;5087442;28;20068;-68
2022/10/21 04:50:48;;;;;;;48.95;8.57;;;26.00;58.90;;;;;;5091503;28;20176;-68
2022/10/21 04:53:15;;;;;;;56.42;10.07;;;26.00;59.00;;;;;;5088689;28;20076;-66
2022/10/21 04:55:41;;;;;;;54.78;10.48;;;26.00;58.40;;;;;;5094474;28;20084;-67
2022/10/21 04:58:08;;;;;;;48.72;9.40;;;26.00;58.20;;;;;;5090881;28;20414;-68
2022/10/21 05:00:34;;;;;;;49.78;8.73;;;26.00;58.70;;;;;;5093097;28;20083;-67
2022/10/21 05:03:01;;;;;;;49.83;9.68;;;25.90;58.90;;;;;;5092491;28;20088;-68
2022/10/21 05:05:27;;;;;;;41.45;8.73;;;25.80;58.30;;;;;;5092215;28;20069;-68
2022/10/21 05:07:54;;;;;;;35.53;8.52;;;25.80;58.40;;;;;;5092084;28;20073;-67
2022/10/21 05:10:21;;;;;;;35.63;8.18;;;25.70;58.20;;;;;;5092380;28;21024;-68
2022/10/21 05:12:47;;;;;;;39.53;8.77;;;25.80;57.80;;;;;;5093736;28;20068;-68
2022/10/21 05:15:14;;;;;;;40.03;8.38;;;25.70;57.70;;;;;;5093058;28;20088;-67
2022/10/21 05:17:40;;;;;;;42.80;9.85;;;25.80;58.20;;;;;;5087404;28;20112;-67
2022/10/21 05:20:07;;;;;;;38.28;11.70;;;25.80;58.40;;;;;;5090084;28;20073;-68
2022/10/21 05:22:33;;;;;;;41.17;9.30;;;25.70;57.80;;;;;;5092430;28;20108;-67
2022/10/21 05:25:00;;;;;;;42.78;8.27;;;25.70;58.30;;;;;;5090671;28;20072;-66
2022/10/21 05:27:26;;;;;;;38.30;7.65;;;25.70;58.20;;;;;;5090070;28;20160;-65
2022/10/21 05:29:53;;;;;;;37.85;7.75;;;25.70;58.50;;;;;;5090901;28;20063;-67
2022/10/21 05:32:19;;;;;;;28.95;7.53;;;25.70;57.70;;;;;;5089431;28;20076;-67
2022/10/21 05:34:45;;;;;;;37.25;7.43;;;25.60;57.20;;;;;;5096850;28;20107;-68
2022/10/21 05:37:12;;;;;;;43.83;7.65;;;25.70;57.50;;;;;;5095240;28;20096;-65
2022/10/21 05:39:38;;;;;;;32.03;6.53;;;25.70;57.10;;;;;;5089919;28;21469;-66
2022/10/21 05:42:05;;;;;;;23.58;6.07;;;25.70;57.30;;;;;;5090694;28;20088;-66
2022/10/21 05:44:31;;;;;;;201.13;17.73;;;25.70;57.30;;;;;;5093616;28;20433;-71
2022/10/21 05:46:57;;;;;;;89.00;11.15;;;25.70;57.60;;;;;;5088977;28;20084;-68
2022/10/21 05:49:24;;;;;;;26.88;6.47;;;25.60;57.70;;;;;;5090117;28;20076;-68
2022/10/21 05:51:50;;;;;;;22.23;5.50;;;25.60;58.50;;;;;;5089740;28;20160;-69
2022/10/21 05:54:17;;;;;;;23.85;6.03;;;25.60;58.30;;;;;;5097900;28;20444;-68
2022/10/21 05:56:43;;;;;;;29.25;5.75;;;25.50;58.40;;;;;;5089911;28;20077;-70
2022/10/21 05:59:10;;;;;;;36.35;6.30;;;25.50;58.80;;;;;;5094845;28;20457;-67
2022/10/21 06:01:38;;;;;;;26.60;6.13;;;25.40;58.90;;;;;;5089930;28;20085;-67
2022/10/21 06:04:05;;;;;;;26.55;6.57;;;25.30;59.20;;;;;;5088327;28;20120;-65
2022/10/21 06:06:31;;;;;;;43.85;7.10;;;25.40;59.50;;;;;;5088047;28;20076;-68
2022/10/21 06:08:58;;;;;;;33.83;7.13;;;25.30;59.90;;;;;;5092006;28;20087;-70
2022/10/21 06:11:24;;;;;;;40.10;7.05;;;25.30;60.80;;;;;;5090197;28;20109;-69
2022/10/21 06:13:50;;;;;;;33.30;5.63;;;25.30;61.10;;;;;;5092601;28;20064;-70
2022/10/21 06:16:17;;;;;;;35.15;6.00;;;25.30;60.30;;;;;;5088176;28;20566;-74
2022/10/21 06:18:43;;;;;;;30.17;5.95;;;25.20;60.30;;;;;;5094520;28;20121;-72
2022/10/21 06:21:11;;;;;;;34.47;6.70;;;25.20;60.40;;;;;;5090995;28;20099;-71
2022/10/21 06:23:37;;;;;;;31.20;5.80;;;25.20;61.30;;;;;;5088638;28;20453;-74
2022/10/21 06:26:13;;;;;;;44.25;7.22;;;25.10;61.80;;;;;;5093438;28;20068;-70
2022/10/21 06:28:41;;;;;;;34.90;6.43;;;25.10;62.10;;;;;;5099062;28;20067;-70
2022/10/21 06:31:11;;;;;;;37.28;7.88;;;25.10;62.10;;;;;;5089163;28;20203;-70
2022/10/21 06:33:37;;;;;;;34.83;7.38;;;25.10;62.20;;;;;;5092157;28;20071;-70
2022/10/21 06:36:04;;;;;;;41.13;6.03;;;25.10;62.20;;;;;;5093031;28;21368;-70
2022/10/21 06:38:31;;;;;;;24.00;6.18;;;25.10;62.10;;;;;;5088558;28;20069;-69
2022/10/21 06:41:08;;;;;;;28.50;5.50;;;25.10;62.20;;;;;;5091467;28;20117;-72
2022/10/21 06:43:34;;;;;;;22.05;4.88;;;25.10;61.80;;;;;;5092084;28;20549;-69
2022/10/21 06:46:09;;;;;;;28.63;4.20;;;25.10;61.70;;;;;;5089292;28;20076;-70
2022/10/21 06:48:36;;;;;;;30.38;4.25;;;25.00;61.90;;;;;;5090780;28;20064;-71
2022/10/21 06:51:05;;;;;;;22.85;4.32;;;25.00;61.70;;;;;;5091811;28;20529;-70
2022/10/21 06:53:33;;;;;;;32.30;4.82;;;25.00;61.60;;;;;;5089313;28;20088;-70
2022/10/21 06:56:05;;;;;;;28.95;4.97;;;25.00;61.40;;;;;;5090036;28;20081;-69
2022/10/21 06:58:31;;;;;;;21.73;4.03;;;25.00;61.80;;;;;;5094897;28;20077;-70
2022/10/21 07:00:58;;;;;;;19.95;3.67;;;25.00;61.50;;;;;;5089355;28;20120;-69
2022/10/21 07:03:24;;;;;;;25.88;4.95;;;24.90;61.30;;;;;;5095024;28;20585;-69
2022/10/21 07:05:58;;;;;;;28.02;4.22;;;25.00;61.30;;;;;;5088311;28;20080;-72
2022/10/21 07:08:26;;;;;;;17.15;3.22;;;24.90;61.30;;;;;;5088141;28;20529;-73
2022/10/21 07:10:52;;;;;;;15.95;3.25;;;24.90;61.00;;;;;;5089907;28;20254;-69
2022/10/21 07:13:19;;;;;;;25.45;3.55;;;24.90;61.00;;;;;;5086123;28;20525;-68
2022/10/21 07:15:45;;;;;;;22.50;3.72;;;24.80;61.10;;;;;;5088225;28;20087;-71
2022/10/21 07:18:12;;;;;;;20.08;3.03;;;24.80;61.20;;;;;;5084528;28;20177;-69
2022/10/21 07:20:38;;;;;;;15.68;2.90;;;24.80;60.60;;;;;;5087980;28;20080;-69
2022/10/21 07:23:04;;;;;;;17.85;2.78;;;24.80;60.20;;;;;;5089977;28;20419;-69
2022/10/21 07:25:31;;;;;;;15.70;2.70;;;24.80;60.00;;;;;;5087630;28;20096;-71
2022/10/21 07:27:57;;;;;;;13.20;2.63;;;24.80;59.70;;;;;;5089067;28;20228;-69
2022/10/21 07:30:24;;;;;;;16.85;2.55;;;24.70;60.00;;;;;;5087996;28;20179;-70
2022/10/21 07:32:50;;;;;;;19.38;2.63;;;24.70;59.70;;;;;;5094755;28;20087;-70
2022/10/21 07:35:17;;;;;;;23.67;2.47;;;24.70;59.50;;;;;;5086589;28;20100;-71
2022/10/21 07:37:43;;;;;;;17.42;2.40;;;24.70;59.30;;;;;;5088797;28;20146;-68
2022/10/21 07:40:11;;;;;;;23.48;2.78;;;24.70;59.30;;;;;;5094509;28;20076;-68
2022/10/21 07:42:37;;;;;;;12.68;2.08;;;24.60;59.20;;;;;;5088848;28;20175;-70
2022/10/21 07:45:04;;;;;;;10.07;2.33;;;24.70;58.60;;;;;;5089036;28;20559;-71
2022/10/21 07:47:30;;;;;;;15.05;3.17;;;24.60;58.30;;;;;;5093166;28;20084;-71
2022/10/21 07:49:56;;;;;;;12.55;4.00;;;24.50;58.20;;;;;;5087496;28;20065;-70
2022/10/21 07:52:23;;;;;;;16.17;2.53;;;24.50;58.50;;;;;;5089263;28;20505;-69
2022/10/21 07:54:49;;;;;;;10.90;2.20;;;24.40;57.80;;;;;;5088519;28;20094;-73
2022/10/21 07:57:16;;;;;;;13.30;2.28;;;24.40;57.70;;;;;;5091254;28;20082;-72
2022/10/21 07:59:42;;;;;;;11.52;2.15;;;24.30;57.40;;;;;;5089554;28;20413;-72
2022/10/21 08:02:12;;;;;;;12.52;2.10;;;24.40;57.20;;;;;;5087303;28;20088;-70
2022/10/21 08:04:39;;;;;;;8.88;2.40;;;24.40;56.80;;;;;;5088638;28;20061;-69
2022/10/21 08:07:05;;;;;;;18.65;2.28;;;24.40;57.10;;;;;;5096219;28;20537;-67
2022/10/21 08:09:32;;;;;;;7.78;2.08;;;24.30;57.10;;;;;;5095185;28;20095;-68
2022/10/21 08:11:58;;;;;;;10.23;1.70;;;24.30;57.40;;;;;;5088696;28;20077;-71
2022/10/21 08:14:25;;;;;;;9.63;1.85;;;24.30;57.30;;;;;;5094589;28;20547;-69
2022/10/21 08:16:53;;;;;;;8.55;1.73;;;24.30;56.70;;;;;;5089779;28;20585;-71
2022/10/21 08:19:28;;;;;;;7.18;1.60;;;24.30;57.00;;;;;;5085427;28;20125;-70
2022/10/21 08:21:55;;;;;;;7.03;2.03;;;24.30;57.00;;;;;;5087973;28;20121;-70
2022/10/21 08:24:22;;;;;;;12.10;1.83;;;24.30;57.70;;;;;;5089393;28;20501;-69
2022/10/21 08:26:50;;;;;;;12.90;2.10;;;24.10;57.50;;;;;;5085662;28;20091;-69
2022/10/21 08:29:17;;;;;;;16.27;2.15;;;24.10;57.70;;;;;;5094133;28;20073;-72
2022/10/21 08:31:44;;;;;;;13.25;1.88;;;24.20;57.60;;;;;;5097411;28;20544;-71
2022/10/21 08:34:10;;;;;;;16.38;2.13;;;24.20;57.40;;;;;;5092205;28;20081;-70
2022/10/21 08:36:37;;;;;;;14.15;2.25;;;24.20;57.10;;;;;;5095998;28;20073;-69
2022/10/21 08:39:05;;;;;;;8.77;2.00;;;24.20;57.20;;;;;;5095195;28;20106;-72
2022/10/21 08:41:37;;;;;;;6.15;1.70;;;24.20;57.20;;;;;;5096056;28;20127;-70
2022/10/21 08:44:25;;;;;;;6.32;1.55;;;24.20;56.60;;;;;;5095618;28;20172;-70
2022/10/21 08:46:58;;;;;;;14.52;1.73;;;24.20;56.50;;;;;;5090094;28;20122;-71
2022/10/21 08:49:45;;;;;;;15.10;2.40;;;24.30;56.00;;;;;;5091765;28;20077;-69
2022/10/21 08:52:42;;;;;;;11.27;2.00;;;24.30;55.40;;;;;;5091889;28;20106;-70
2022/10/21 08:55:27;;;;;;;5.15;2.00;;;24.30;55.10;;;;;;5085335;28;20604;-69
2022/10/21 08:57:54;;;;;;;8.73;1.95;;;24.30;54.50;;;;;;5090890;28;20099;-69
2022/10/21 09:00:23;;;;;;;9.57;1.90;;;24.30;54.30;;;;;;5093968;28;20426;-71
2022/10/21 09:02:49;;;;;;;13.82;1.90;;;24.30;54.70;;;;;;5090387;28;20085;-70
2022/10/21 09:05:46;;;;;;;17.30;1.90;;;24.30;54.20;;;;;;5091121;28;20076;-70
2022/10/21 09:08:37;;;;;;;9.63;2.38;;;24.30;54.10;;;;;;5089175;28;20153;-72
2022/10/21 09:11:29;;;;;;;9.75;1.70;;;24.30;54.50;;;;;;5092172;28;20073;-68
2022/10/21 09:14:29;;;;;;;12.75;2.00;;;24.30;54.50;;;;;;5094073;28;20534;-69
2022/10/21 09:17:22;;;;;;;10.93;2.20;;;24.30;54.70;;;;;;5090870;28;20119;-71
2022/10/21 09:20:04;;;;;;;14.13;2.50;;;24.30;55.00;;;;;;5091357;28;20073;-69
2022/10/21 09:22:54;;;;;;;5.95;1.70;;;24.30;54.70;;;;;;5088471;28;20089;-70
2022/10/21 09:25:32;;;;;;;10.48;1.90;;;24.30;54.70;;;;;;5090798;28;20075;-71
2022/10/21 09:28:07;;;;;;;5.50;1.70;;;24.20;54.70;;;;;;5089311;28;20172;-73
2022/10/21 09:30:34;;;;;;;8.88;1.50;;;24.20;54.90;;;;;;5092618;28;20425;-71
2022/10/21 09:33:01;;;;;;;7.50;1.70;;;24.20;55.40;;;;;;5089713;28;20155;-69
2022/10/21 09:35:45;;;;;;;10.15;2.22;;;24.10;55.40;;;;;;5090271;28;20073;-69
2022/10/21 09:38:11;;;;;;;10.15;1.50;;;24.10;55.60;;;;;;5092558;28;20560;-70
2022/10/21 09:40:38;;;;;;;13.18;1.73;;;24.10;55.90;;;;;;5093096;28;20084;-71
2022/10/21 09:43:12;;;;;;;11.18;1.67;;;24.00;56.30;;;;;;5094406;28;20088;-71
2022/10/21 09:45:42;;;;;;;15.27;1.90;;;23.90;56.70;;;;;;5090790;28;20149;-70
2022/10/21 09:48:31;;;;;;;11.05;2.10;;;23.80;56.80;;;;;;5090203;28;20073;-71
2022/10/21 09:51:15;;;;;;;13.10;2.22;;;23.80;57.10;;;;;;5089228;28;20068;-69
2022/10/21 09:53:52;;;;;;;10.10;1.58;;;23.70;57.40;;;;;;5091007;28;20076;-68
2022/10/21 09:56:22;;;;;;;13.07;2.10;;;23.60;57.80;;;;;;5089522;28;20080;-68
2022/10/21 09:59:05;;;;;;;14.82;2.40;;;23.50;57.90;;;;;;5090599;28;20076;-69
2022/10/21 10:01:32;;;;;;;9.73;2.05;;;23.50;58.60;;;;;;5089957;28;20129;-67
2022/10/21 10:03:58;;;;;;;14.60;2.65;;;23.40;58.70;;;;;;5089824;28;20491;-71
2022/10/21 10:06:33;;;;;;;12.98;2.10;;;23.30;58.90;;;;;;5089449;28;20079;-70
2022/10/21 10:09:29;;;;;;;10.35;2.00;;;23.40;58.90;;;;;;5089993;28;20065;-72
2022/10/21 10:12:02;;;;;;;14.55;2.60;;;23.40;59.20;;;;;;5088443;28;20089;-67
2022/10/21 10:14:35;;;;;;;9.00;2.17;;;23.40;59.50;;;;;;5092751;28;20180;-66
2022/10/21 10:17:24;;;;;;;16.17;2.63;;;23.40;59.30;;;;;;5089301;28;20119;-70
2022/10/21 10:20:21;;;;;;;14.43;2.50;;;23.30;59.50;;;;;;5089914;28;20081;-70
2022/10/21 10:23:08;;;;;;;13.43;2.40;;;23.30;60.00;;;;;;5090464;28;20139;-70
2022/10/21 10:25:38;;;;;;;20.27;2.53;;;23.30;59.90;;;;;;5098643;28;20313;-68
2022/10/21 10:28:10;;;;;;;9.38;2.50;;;23.30;60.20;;;;;;5090254;28;20064;-71
2022/10/21 10:30:42;;;;;;;13.90;2.70;;;23.20;60.40;;;;;;5090014;28;20141;-70
2022/10/21 10:33:19;;;;;;;9.27;2.42;;;23.20;61.10;;;;;;5089652;28;20101;-70
2022/10/21 10:35:57;;;;;;;11.65;2.63;;;23.20;60.70;;;;;;5087676;28;20568;-69
2022/10/21 10:38:51;;;;;;;10.73;2.42;;;23.20;61.50;;;;;;5089408;28;20077;-70
2022/10/21 10:41:18;;;;;;;10.43;2.10;;;23.10;62.30;;;;;;5088306;28;20077;-70
2022/10/21 10:43:54;;;;;;;11.60;2.35;;;23.00;62.60;;;;;;5088717;28;20089;-72
2022/10/21 10:46:30;;;;;;;;;;;22.90;61.80;;;;;;5088337;28;20059;-70
2022/10/21 10:49:05;;;;;;;14.38;2.55;;;22.80;61.90;;;;;;5090521;28;19956;-67
2022/10/21 10:51:34;;;;;;;18.08;2.58;;;22.80;61.70;;;;;;5090092;28;20144;-66
2022/10/21 10:54:21;;;;;;;13.65;2.42;;;22.80;62.80;;;;;;5089303;28;20115;-64
2022/10/21 10:57:00;;;;;;;17.30;2.80;;;22.80;61.90;;;;;;5093396;28;20437;-66
2022/10/21 10:59:34;;;;;;;20.58;2.72;;;22.80;62.50;;;;;;5089813;28;20119;-66
2022/10/21 11:02:08;;;;;;;10.73;3.00;;;22.70;63.00;;;;;;5089223;28;20195;-67
2022/10/21 11:05:03;;;;;;;12.55;2.55;;;22.80;62.60;;;;;;5089167;28;21828;-66
2022/10/21 11:07:58;;;;;;;15.32;2.78;;;22.70;62.90;;;;;;5089101;28;20445;-66
2022/10/21 11:10:46;;;;;;;20.20;3.40;;;22.70;63.20;;;;;;5089383;28;20112;-66
2022/10/21 11:13:18;;;;;;;20.70;3.72;;;22.70;63.20;;;;;;5097446;28;20075;-65
2022/10/21 11:15:53;;;;;;;25.58;4.18;;;22.70;63.10;;;;;;5087545;28;20073;-66
2022/10/21 11:18:32;;;;;;;26.83;5.20;;;22.60;63.20;;;;;;5089083;28;20076;-66
2022/10/21 11:21:09;;;;;;;23.60;4.70;;;22.60;63.20;;;;;;5094898;28;20429;-67
2022/10/21 11:24:04;;;;;;;26.73;5.00;;;22.70;63.60;;;;;;5085851;28;20127;-66
2022/10/21 11:26:58;;;;;;;26.15;5.22;;;22.60;63.40;;;;;;5090233;28;20069;-66
2022/10/21 11:30:00;;;;;;;24.00;4.63;;;22.40;64.00;;;;;;5087950;28;20092;-64
2022/10/21 11:33:04;;;;;;;23.02;4.75;;;22.40;64.90;;;;;;5027794;28;20497;-66
2022/10/21 11:35:53;;;;;;;27.30;5.53;;;22.40;64.80;;;;;;5026623;28;20662;-66
2022/10/21 11:38:57;;;;;;;27.85;6.03;;;22.20;65.60;;;;;;5027643;28;20097;-66
2022/10/21 11:41:30;;;;;;;31.25;5.50;;;22.20;66.00;;;;;;4979360;28;20199;-64
2022/10/21 11:44:02;;;;;;;22.77;5.70;;;22.20;65.60;;;;;;5025962;28;20082;-64
2022/10/21 11:46:56;;;;;;;27.70;6.32;;;22.20;66.80;;;;;;5026320;28;20089;-66
2022/10/21 11:49:38;;;;;;;27.55;6.10;;;22.20;66.20;;;;;;5026870;28;20500;-66
2022/10/21 11:52:18;;;;;;;29.90;6.05;;;22.20;65.90;;;;;;5027159;28;20101;-66
2022/10/21 11:55:03;;;;;;;29.85;6.47;;;22.20;66.20;;;;;;5027642;28;20069;-66
2022/10/21 11:57:50;;;;;;;23.38;6.40;;;22.20;66.80;;;;;;5026118;28;20078;-66
2022/10/21 12:00:26;;;;;;;;;;;22.20;66.20;;;;;;5027391;28;20551;-66
2022/10/21 12:03:28;;;;;;;44.03;6.90;;;22.10;66.30;;;;;;5026863;28;20103;-65
2022/10/21 12:06:23;;;;;;;35.22;7.53;;;22.10;66.60;;;;;;5047574;28;20117;-66
2022/10/21 12:09:04;;;;;;;34.45;7.82;;;22.20;66.90;;;;;;5080398;28;20087;-66
2022/10/21 12:11:56;;;;;;;30.55;7.78;;;22.30;66.70;;;;;;5092663;28;20068;-66
2022/10/21 12:14:25;;;;;;;33.55;6.65;;;22.20;66.70;;;;;;5086926;28;20129;-67
2022/10/21 12:16:54;;;;;;;36.05;7.40;;;22.20;66.90;;;;;;5091848;28;20112;-64
2022/10/21 12:19:22;;;;;;;24.33;6.15;;;22.20;67.50;;;;;;5092509;28;20150;-65
2022/10/21 12:21:49;;;;;;;27.73;7.28;;;22.20;67.70;;;;;;5094454;28;20120;-65
2022/10/21 12:24:35;;;;;;;28.33;7.78;;;22.20;68.00;;;;;;5090287;28;20160;-64
2022/10/21 12:27:17;;;;;;;31.17;6.70;;;22.20;68.20;;;;;;5091705;28;20155;-65
2022/10/21 12:30:13;;;;;;;29.45;7.43;;;22.20;68.20;;;;;;5091631;28;20095;-63
2022/10/21 12:32:54;;;;;;;46.67;8.77;;;22.30;68.20;;;;;;5092590;28;20465;-64
2022/10/21 12:35:40;;;;;;;39.28;9.15;;;22.30;68.90;;;;;;5093952;28;20317;-63
2022/10/21 12:38:20;;;;;;;39.97;8.40;;;22.30;69.20;;;;;;5091757;28;20072;-64
2022/10/21 12:40:47;;;;;;;42.67;8.10;;;22.20;69.00;;;;;;5090361;28;20076;-65
2022/10/21 12:43:26;;;;;;;40.65;8.93;;;22.20;70.10;;;;;;5089866;28;20080;-64
2022/10/21 12:46:05;;;;;;;47.38;10.52;;;22.20;69.30;;;;;;5089551;28;20076;-62
2022/10/21 12:48:33;;;;;;;43.60;10.75;;;22.30;69.10;;;;;;5090227;28;20143;-64
2022/10/21 12:51:04;;;;;;;58.45;10.98;;;22.30;69.50;;;;;;5090854;28;20072;-64
2022/10/21 12:53:47;;;;;;;47.25;12.18;;;22.40;69.60;;;;;;5099196;28;20487;-64
2022/10/21 12:56:33;;;;;;;44.88;12.63;;;22.30;69.40;;;;;;5090969;28;20073;-66
2022/10/21 12:59:05;;;;;;;54.60;13.07;;;22.40;69.20;;;;;;5100005;28;20064;-63
2022/10/21 13:01:41;;;;;;;43.10;12.63;;;22.40;69.40;;;;;;5091046;28;20150;-64
2022/10/21 13:04:32;;;;;;;49.53;13.25;;;22.40;69.60;;;;;;5094010;28;20068;-64
2022/10/21 13:07:00;;;;;;;50.95;12.98;;;22.40;69.90;;;;;;5090736;28;20115;-67